createdAt,value
2022-12-31T00:00:43.947Z,5.35
2022-12-31T00:02:51.910Z,4.90
2022-12-31T00:04:58.012Z,4.13
2022-12-31T00:07:03.216Z,3.45
2022-12-31T00:09:11.530Z,3.25
2022-12-31T00:11:17.396Z,3.50
2022-12-31T00:13:22.798Z,4.03
2022-12-31T00:15:27.985Z,3.83
2022-12-31T00:17:33.383Z,3.67
2022-12-31T00:19:41.457Z,5.57
2022-12-31T00:21:47.210Z,3.83
2022-12-31T00:23:52.780Z,3.60
2022-12-31T00:25:57.984Z,5.32
2022-12-31T00:28:03.261Z,4.22
2022-12-31T00:30:12.425Z,3.92
2022-12-31T00:32:17.624Z,4.22
2022-12-31T00:34:22.907Z,3.95
2022-12-31T00:36:34.738Z,4.10
2022-12-31T00:38:41.285Z,2.10
2022-12-31T00:40:46.549Z,3.35
2022-12-31T00:42:51.823Z,2.60
2022-12-31T00:44:56.998Z,2.70
2022-12-31T00:47:02.364Z,3.65
2022-12-31T00:49:07.939Z,4.55
2022-12-31T00:51:17.967Z,5.32
2022-12-31T00:53:27.105Z,5.82
2022-12-31T00:55:34.263Z,5.10
2022-12-31T00:57:39.459Z,4.97
2022-12-31T00:59:44.715Z,4.85
2022-12-31T01:01:50.190Z,3.22
2022-12-31T01:04:00.562Z,3.72
2022-12-31T01:06:05.850Z,3.85
2022-12-31T01:08:11.301Z,3.35
2022-12-31T01:10:39.213Z,4.78
2022-12-31T01:12:44.626Z,3.95
2022-12-31T01:14:49.906Z,3.60
2022-12-31T01:16:56.958Z,3.97
2022-12-31T01:19:06.149Z,2.92
2022-12-31T01:21:14.568Z,2.15
2022-12-31T01:23:19.780Z,2.17
2022-12-31T01:25:27.787Z,3.47
2022-12-31T01:27:33.017Z,2.50
2022-12-31T01:29:38.406Z,2.15
2022-12-31T01:31:44.246Z,2.58
2022-12-31T01:33:50.403Z,2.75
2022-12-31T01:35:55.620Z,1.80
2022-12-31T01:38:00.997Z,2.63
2022-12-31T01:40:06.692Z,1.65
2022-12-31T01:42:15.653Z,1.77
2022-12-31T01:44:52.493Z,1.33
2022-12-31T01:47:03.392Z,1.23
2022-12-31T01:49:19.822Z,1.17
2022-12-31T01:51:28.450Z,1.58
2022-12-31T01:53:34.773Z,1.70
2022-12-31T01:55:49.320Z,1.60
2022-12-31T01:58:04.004Z,2.25
2022-12-31T02:00:11.985Z,1.75
2022-12-31T02:02:19.358Z,0.52
2022-12-31T02:04:28.645Z,1.17
2022-12-31T02:06:42.075Z,1.38
2022-12-31T02:08:47.785Z,0.80
2022-12-31T02:10:53.031Z,0.40
2022-12-31T02:13:01.767Z,0.32
2022-12-31T02:15:08.975Z,0.40
2022-12-31T02:17:26.539Z,0.68
2022-12-31T02:20:22.060Z,0.25
2022-12-31T02:22:51.775Z,0.30
2022-12-31T02:25:39.171Z,0.35
2022-12-31T02:28:02.049Z,0.77
2022-12-31T02:30:18.010Z,0.95
2022-12-31T02:32:32.109Z,0.28
2022-12-31T02:34:44.496Z,1.02
2022-12-31T02:36:53.606Z,0.30
2022-12-31T02:39:01.304Z,0.55
2022-12-31T02:41:06.661Z,0.35
2022-12-31T02:43:11.881Z,1.05
2022-12-31T02:45:29.650Z,0.55
2022-12-31T02:47:52.852Z,1.48
2022-12-31T02:50:30.158Z,0.20
2022-12-31T02:52:54.088Z,0.20
2022-12-31T02:55:13.593Z,0.20
2022-12-31T02:57:31.703Z,1.30
2022-12-31T02:59:56.081Z,1.85
2022-12-31T03:02:16.690Z,0.55
2022-12-31T03:04:37.389Z,1.48
2022-12-31T03:06:45.044Z,0.22
2022-12-31T03:09:02.700Z,0.65
2022-12-31T03:11:28.330Z,1.45
2022-12-31T03:13:31.161Z,0.22
2022-12-31T03:15:37.522Z,0.85
2022-12-31T03:17:45.386Z,0.20
2022-12-31T03:20:03.490Z,0.50
2022-12-31T03:22:23.054Z,0.22
2022-12-31T03:24:41.328Z,0.32
2022-12-31T03:26:46.565Z,0.20
2022-12-31T03:28:52.763Z,0.52
2022-12-31T03:31:01.960Z,0.75
2022-12-31T03:33:11.740Z,0.20
2022-12-31T03:35:20.375Z,0.75
2022-12-31T03:37:25.591Z,0.60
2022-12-31T03:39:30.836Z,0.52
2022-12-31T03:41:36.146Z,0.65
2022-12-31T03:43:41.921Z,0.32
2022-12-31T03:45:47.482Z,1.10
2022-12-31T03:47:53.253Z,0.98
2022-12-31T03:50:01.653Z,0.73
2022-12-31T03:52:08.761Z,0.20
2022-12-31T03:54:14.037Z,0.52
2022-12-31T03:56:19.239Z,1.17
2022-12-31T03:58:25.559Z,0.55
2022-12-31T04:00:31.469Z,0.40
2022-12-31T04:02:36.820Z,0.43
2022-12-31T04:04:42.136Z,0.73
2022-12-31T04:06:50.218Z,0.10
2022-12-31T04:08:55.406Z,0.22
2022-12-31T04:11:00.684Z,0.10
2022-12-31T04:13:05.929Z,0.60
2022-12-31T04:15:15.611Z,0.22
2022-12-31T04:17:20.869Z,0.65
2022-12-31T04:19:26.223Z,0.70
2022-12-31T04:21:35.005Z,0.68
2022-12-31T04:23:43.221Z,0.40
2022-12-31T04:25:48.830Z,1.40
2022-12-31T04:27:54.075Z,0.70
2022-12-31T04:29:59.295Z,0.68
2022-12-31T04:32:05.036Z,0.40
2022-12-31T04:34:10.328Z,0.47
2022-12-31T04:36:15.624Z,0.20
2022-12-31T04:38:20.904Z,1.70
2022-12-31T04:40:28.914Z,0.73
2022-12-31T04:42:34.176Z,0.55
2022-12-31T04:44:39.804Z,0.50
2022-12-31T04:46:45.038Z,0.47
2022-12-31T04:48:50.550Z,0.30
2022-12-31T04:50:55.915Z,4.80
2022-12-31T04:53:01.190Z,0.13
2022-12-31T04:55:06.956Z,0.45
2022-12-31T04:57:14.835Z,1.23
2022-12-31T04:59:20.047Z,0.30
2022-12-31T05:01:26.091Z,0.45
2022-12-31T05:03:32.088Z,0.40
2022-12-31T05:05:42.892Z,0.45
2022-12-31T05:07:48.114Z,0.60
2022-12-31T05:09:53.317Z,0.20
2022-12-31T05:11:58.515Z,0.50
2022-12-31T05:14:06.551Z,1.40
2022-12-31T05:16:12.888Z,0.45
2022-12-31T05:18:18.397Z,0.32
2022-12-31T05:20:23.659Z,0.47
2022-12-31T05:22:31.798Z,0.17
2022-12-31T05:24:37.105Z,0.82
2022-12-31T05:26:42.428Z,0.28
2022-12-31T05:28:47.846Z,1.15
2022-12-31T05:30:56.365Z,0.47
2022-12-31T05:33:01.669Z,0.20
2022-12-31T05:35:08.344Z,0.20
2022-12-31T05:37:13.727Z,0.85
2022-12-31T05:39:19.280Z,1.52
2022-12-31T05:41:24.508Z,0.63
2022-12-31T05:43:30.890Z,0.52
2022-12-31T05:45:36.147Z,0.43
2022-12-31T05:47:44.126Z,0.43
2022-12-31T05:49:49.442Z,0.40
2022-12-31T05:51:54.764Z,0.20
2022-12-31T05:53:59.982Z,2.05
2022-12-31T05:56:05.347Z,0.70
2022-12-31T05:58:10.582Z,0.30
2022-12-31T06:00:18.355Z,3.30
2022-12-31T06:02:24.195Z,0.30
2022-12-31T06:04:32.280Z,2.28
2022-12-31T06:06:37.712Z,0.60
2022-12-31T06:08:43.038Z,0.50
2022-12-31T06:10:48.288Z,1.27
2022-12-31T06:12:53.635Z,1.25
2022-12-31T06:14:59.015Z,0.70
2022-12-31T06:17:05.297Z,0.57
2022-12-31T06:19:10.680Z,1.42
2022-12-31T06:21:18.703Z,0.20
2022-12-31T06:23:23.929Z,1.40
2022-12-31T06:25:29.276Z,0.20
2022-12-31T06:27:34.515Z,0.50
2022-12-31T06:29:39.868Z,0.30
2022-12-31T06:31:45.109Z,1.05
2022-12-31T06:33:50.354Z,0.75
2022-12-31T06:35:59.652Z,0.90
2022-12-31T06:38:07.934Z,0.70
2022-12-31T06:40:14.953Z,0.50
2022-12-31T06:42:20.229Z,1.40
2022-12-31T06:44:25.815Z,1.52
2022-12-31T06:46:31.138Z,1.75
2022-12-31T06:48:36.783Z,0.30
2022-12-31T06:50:42.433Z,0.70
2022-12-31T06:52:47.624Z,0.20
2022-12-31T06:54:56.717Z,0.20
2022-12-31T06:57:03.096Z,0.13
2022-12-31T06:59:09.234Z,0.30
2022-12-31T07:01:36.145Z,0.03
2022-12-31T07:03:50.036Z,1.95
2022-12-31T07:06:04.240Z,0.40
2022-12-31T07:08:28.846Z,0.30
2022-12-31T07:10:51.216Z,0.65
2022-12-31T07:13:30.828Z,0.38
2022-12-31T07:15:59.128Z,0.90
2022-12-31T07:18:17.815Z,0.43
2022-12-31T07:20:24.680Z,0.85
2022-12-31T07:22:30.987Z,0.38
2022-12-31T07:24:37.392Z,2.28
2022-12-31T07:27:24.093Z,1.08
2022-12-31T07:29:49.377Z,0.68
2022-12-31T07:32:07.447Z,0.52
2022-12-31T07:34:26.666Z,1.45
2022-12-31T07:37:04.386Z,1.05
2022-12-31T07:39:17.360Z,0.40
2022-12-31T07:41:43.815Z,1.83
2022-12-31T07:44:07.761Z,2.70
2022-12-31T07:46:22.420Z,1.05
2022-12-31T07:48:31.104Z,1.50
2022-12-31T07:50:37.549Z,1.33
2022-12-31T07:52:44.247Z,1.55
2022-12-31T07:54:49.699Z,0.50
2022-12-31T07:56:55.635Z,0.77
2022-12-31T07:59:24.260Z,0.45
2022-12-31T08:01:43.550Z,0.73
2022-12-31T08:04:00.378Z,1.17
2022-12-31T08:06:18.225Z,1.40
2022-12-31T08:08:39.655Z,2.58
2022-12-31T08:10:59.589Z,1.25
2022-12-31T08:13:11.513Z,1.45
2022-12-31T08:15:28.478Z,1.67
2022-12-31T08:17:36.125Z,0.88
2022-12-31T08:19:42.771Z,0.93
2022-12-31T08:22:07.298Z,0.90
2022-12-31T08:24:30.093Z,1.45
2022-12-31T08:26:52.830Z,0.68
2022-12-31T08:31:24.296Z,0.60
2022-12-31T08:33:41.278Z,1.40
2022-12-31T08:36:10.548Z,1.13
2022-12-31T08:38:31.424Z,0.32
2022-12-31T08:40:54.616Z,0.82
2022-12-31T08:43:21.380Z,1.40
2022-12-31T08:45:33.603Z,0.52
2022-12-31T08:48:01.233Z,1.50
2022-12-31T08:50:08.740Z,0.70
2022-12-31T08:52:25.561Z,0.45
2022-12-31T08:54:32.289Z,0.45
2022-12-31T08:56:50.450Z,2.03
2022-12-31T08:59:11.263Z,1.60
2022-12-31T09:01:24.489Z,1.75
2022-12-31T09:03:59.727Z,1.30
2022-12-31T09:06:19.420Z,1.23
2022-12-31T09:08:38.695Z,1.98
2022-12-31T09:10:54.673Z,1.00
2022-12-31T09:13:17.486Z,0.68
2022-12-31T09:15:33.005Z,1.40
2022-12-31T09:17:49.242Z,0.65
2022-12-31T09:19:58.567Z,1.35
2022-12-31T09:22:04.852Z,1.60
2022-12-31T09:24:13.808Z,4.72
2022-12-31T09:26:42.093Z,0.75
2022-12-31T09:28:58.495Z,0.60
2022-12-31T09:31:14.830Z,2.50
2022-12-31T09:33:43.218Z,2.85
2022-12-31T09:35:58.106Z,3.05
2022-12-31T09:38:13.442Z,4.03
2022-12-31T09:40:57.915Z,6.15
2022-12-31T09:43:33.495Z,4.25
2022-12-31T09:46:29.014Z,1.55
2022-12-31T09:48:59.520Z,1.35
2022-12-31T09:51:30.720Z,1.58
2022-12-31T09:54:12.654Z,1.35
2022-12-31T09:56:29.406Z,1.80
2022-12-31T09:58:52.756Z,1.90
2022-12-31T10:01:07.538Z,1.52
2022-12-31T10:03:54.175Z,2.13
2022-12-31T10:06:18.980Z,2.17
2022-12-31T10:08:50.942Z,1.00
2022-12-31T10:11:02.408Z,1.83
2022-12-31T10:13:38.836Z,1.98
2022-12-31T10:16:22.308Z,3.40
2022-12-31T10:18:55.813Z,2.13
2022-12-31T10:21:31.046Z,2.47
2022-12-31T10:24:15.828Z,2.63
2022-12-31T10:26:54.627Z,3.03
2022-12-31T10:29:18.077Z,4.13
2022-12-31T10:34:07.264Z,2.63
2022-12-31T10:36:23.623Z,3.35
2022-12-31T10:38:48.358Z,2.03
2022-12-31T10:41:51.810Z,3.90
2022-12-31T10:44:46.599Z,4.30
2022-12-31T10:47:33.359Z,2.72
2022-12-31T10:50:34.771Z,2.45
2022-12-31T10:53:26.603Z,2.10
2022-12-31T10:56:40.034Z,4.25
2022-12-31T10:59:54.383Z,2.42
2022-12-31T11:02:28.462Z,2.03
2022-12-31T11:05:34.566Z,2.55
2022-12-31T11:08:22.378Z,2.42
2022-12-31T11:11:11.442Z,3.42
2022-12-31T11:14:03.032Z,2.60
2022-12-31T11:16:43.270Z,3.80
2022-12-31T11:19:04.221Z,4.55
2022-12-31T11:21:43.558Z,6.00
2022-12-31T11:24:11.489Z,3.85
2022-12-31T11:26:31.564Z,3.28
2022-12-31T11:29:05.358Z,2.97
2022-12-31T11:33:50.625Z,3.42
2022-12-31T11:36:20.116Z,2.90
2022-12-31T11:38:31.950Z,2.83
2022-12-31T11:41:02.903Z,2.92
2022-12-31T11:43:24.125Z,5.60
2022-12-31T11:45:54.997Z,6.97
2022-12-31T11:50:53.903Z,11.32
2022-12-31T11:53:24.097Z,9.10
2022-12-31T11:55:56.794Z,9.75
2022-12-31T11:58:16.258Z,9.43
2022-12-31T12:00:25.289Z,6.50
2022-12-31T12:02:35.524Z,8.95
2022-12-31T12:04:41.099Z,4.00
2022-12-31T12:06:46.533Z,4.35
2022-12-31T12:08:53.227Z,3.95
2022-12-31T12:11:08.010Z,4.45
2022-12-31T12:13:24.323Z,4.30
2022-12-31T12:15:35.125Z,2.88
2022-12-31T12:17:41.202Z,3.60
2022-12-31T12:19:50.266Z,3.35
2022-12-31T12:21:57.065Z,7.18
2022-12-31T12:24:07.909Z,6.53
2022-12-31T12:26:36.736Z,2.88
2022-12-31T12:28:49.320Z,2.42
2022-12-31T12:31:01.629Z,2.42
2022-12-31T12:33:08.561Z,2.53
2022-12-31T12:35:18.633Z,2.25
2022-12-31T12:37:35.436Z,2.17
2022-12-31T12:39:40.705Z,2.47
2022-12-31T12:41:46.029Z,1.20
2022-12-31T12:44:05.150Z,4.75
2022-12-31T12:46:24.103Z,1.75
2022-12-31T12:48:39.828Z,2.33
2022-12-31T12:50:50.054Z,2.83
2022-12-31T12:53:22.767Z,1.60
2022-12-31T12:55:39.615Z,1.83
2022-12-31T12:57:59.103Z,2.47
2022-12-31T13:00:20.351Z,2.22
2022-12-31T13:03:21.899Z,2.53
2022-12-31T13:05:43.218Z,2.15
2022-12-31T13:08:02.003Z,2.45
2022-12-31T13:10:29.532Z,1.92
2022-12-31T13:13:22.084Z,1.67
2022-12-31T13:15:21.961Z,3.13
2022-12-31T13:18:02.207Z,1.98
2022-12-31T13:20:22.346Z,1.92
2022-12-31T13:22:35.331Z,3.55
2022-12-31T13:25:00.343Z,2.28
2022-12-31T13:27:15.764Z,2.38
2022-12-31T13:29:27.550Z,1.65
2022-12-31T13:31:40.541Z,2.03
2022-12-31T13:36:00.025Z,1.58
2022-12-31T13:38:14.830Z,2.00
2022-12-31T13:40:30.221Z,4.15
2022-12-31T13:42:46.678Z,2.50
2022-12-31T13:44:59.020Z,2.60
2022-12-31T13:47:15.947Z,1.95
2022-12-31T13:49:29.808Z,2.55
2022-12-31T13:51:46.178Z,1.85
2022-12-31T13:54:02.350Z,2.80
2022-12-31T13:56:18.364Z,3.20
2022-12-31T13:58:36.336Z,3.20
2022-12-31T14:00:50.273Z,2.70
2022-12-31T14:03:14.242Z,4.00
2022-12-31T14:05:28.405Z,2.47
2022-12-31T14:07:45.761Z,2.58
2022-12-31T14:09:51.562Z,1.63
2022-12-31T14:12:28.877Z,1.73
2022-12-31T14:14:49.001Z,1.67
2022-12-31T14:17:02.158Z,2.70
2022-12-31T14:19:32.345Z,2.47
2022-12-31T14:21:52.021Z,3.45
2022-12-31T14:24:15.756Z,2.35
2022-12-31T14:26:29.290Z,3.90
2022-12-31T14:28:46.880Z,3.90
2022-12-31T14:31:05.596Z,3.28
2022-12-31T14:33:39.290Z,1.67
2022-12-31T14:38:36.166Z,1.93
2022-12-31T14:40:59.214Z,1.88
2022-12-31T14:43:21.564Z,4.10
2022-12-31T14:45:42.015Z,3.95
2022-12-31T14:47:56.608Z,3.28
2022-12-31T14:50:12.325Z,1.98
2022-12-31T14:52:35.365Z,4.30
2022-12-31T14:54:41.557Z,5.90
2022-12-31T14:56:48.558Z,11.60
2022-12-31T14:59:00.356Z,9.55
2022-12-31T15:01:09.108Z,4.50
2022-12-31T15:03:31.794Z,4.10
2022-12-31T15:05:40.351Z,3.10
2022-12-31T15:08:09.035Z,3.78
2022-12-31T15:10:24.404Z,3.08
2022-12-31T15:12:59.201Z,6.63
2022-12-31T15:15:29.432Z,4.43
2022-12-31T15:17:51.176Z,6.35
2022-12-31T15:21:01.588Z,2.65
2022-12-31T15:23:22.718Z,2.95
2022-12-31T15:25:41.231Z,2.85
2022-12-31T15:27:50.412Z,3.15
2022-12-31T15:29:55.867Z,6.13
2022-12-31T15:32:06.214Z,5.97
2022-12-31T15:34:29.666Z,5.00
2022-12-31T15:38:47.378Z,3.97
2022-12-31T15:40:55.293Z,5.00
2022-12-31T15:43:12.022Z,6.28
2022-12-31T15:45:25.239Z,11.00
2022-12-31T15:49:44.953Z,9.48
2022-12-31T15:51:56.213Z,10.23
2022-12-31T15:54:07.919Z,9.32
2022-12-31T15:56:22.290Z,8.50
2022-12-31T15:58:35.845Z,6.78
2022-12-31T16:01:04.140Z,4.85
2022-12-31T16:03:25.814Z,6.10
2022-12-31T16:05:31.578Z,4.40
2022-12-31T16:07:37.242Z,3.55
2022-12-31T16:09:45.613Z,7.82
2022-12-31T16:11:51.798Z,6.38
2022-12-31T16:13:59.658Z,7.80
2022-12-31T16:16:10.477Z,9.13
2022-12-31T16:18:22.507Z,10.05
2022-12-31T16:20:32.842Z,7.35
2022-12-31T16:22:42.319Z,6.97
2022-12-31T16:27:22.582Z,5.43
2022-12-31T16:29:28.293Z,6.20
2022-12-31T16:31:34.400Z,16.00
2022-12-31T16:33:39.642Z,9.40
2022-12-31T16:35:44.868Z,7.57
2022-12-31T16:37:50.454Z,15.18
2022-12-31T16:40:24.174Z,6.43
2022-12-31T16:42:31.180Z,5.78
2022-12-31T16:44:36.584Z,4.72
2022-12-31T16:46:41.898Z,6.75
2022-12-31T16:48:51.383Z,3.88
2022-12-31T16:50:59.055Z,4.03
2022-12-31T16:53:09.559Z,4.78
2022-12-31T16:55:24.018Z,5.03
2022-12-31T16:57:33.545Z,3.97
2022-12-31T16:59:46.448Z,4.45
2022-12-31T17:01:52.434Z,4.50
2022-12-31T17:04:04.222Z,4.13
2022-12-31T17:06:18.755Z,3.83
2022-12-31T17:08:28.095Z,5.70
2022-12-31T17:10:39.588Z,3.50
2022-12-31T17:15:23.218Z,3.10
2022-12-31T17:17:33.186Z,4.57
2022-12-31T17:19:45.102Z,3.80
2022-12-31T17:21:51.424Z,6.95
2022-12-31T17:24:02.175Z,6.32
2022-12-31T17:26:14.994Z,6.57
2022-12-31T17:28:26.159Z,6.53
2022-12-31T17:30:43.546Z,6.22
2022-12-31T17:32:50.173Z,8.35
2022-12-31T17:34:55.338Z,6.75
2022-12-31T17:37:21.378Z,7.93
2022-12-31T17:39:27.949Z,8.70
2022-12-31T17:41:35.994Z,7.80
2022-12-31T17:43:42.676Z,8.35
2022-12-31T17:45:49.714Z,6.50
2022-12-31T17:47:57.050Z,62.58
2022-12-31T17:50:07.571Z,65.88
2022-12-31T17:52:17.129Z,21.27
2022-12-31T17:54:23.183Z,16.13
2022-12-31T17:56:28.595Z,18.15
2022-12-31T17:58:41.292Z,16.80
2022-12-31T18:00:46.631Z,14.82
2022-12-31T18:02:51.972Z,8.45
2022-12-31T18:04:57.260Z,9.48
2022-12-31T18:07:02.720Z,8.85
2022-12-31T18:09:07.937Z,8.40
2022-12-31T18:11:19.892Z,6.35
2022-12-31T18:13:28.406Z,6.90
2022-12-31T18:15:36.358Z,5.60
2022-12-31T18:17:41.855Z,5.43
2022-12-31T18:22:18.544Z,7.18
2022-12-31T18:24:26.151Z,10.23
2022-12-31T18:26:33.109Z,6.70
2022-12-31T18:28:38.477Z,6.47
2022-12-31T18:30:47.176Z,6.32
2022-12-31T18:32:52.456Z,6.28
2022-12-31T18:34:57.724Z,8.48
2022-12-31T18:37:02.928Z,6.65
2022-12-31T18:39:08.052Z,6.68
2022-12-31T18:41:21.944Z,7.47
2022-12-31T18:43:28.255Z,6.47
2022-12-31T18:45:33.434Z,9.65
2022-12-31T18:47:41.356Z,8.15
2022-12-31T18:49:48.683Z,9.27
2022-12-31T18:51:55.256Z,11.52
2022-12-31T18:54:00.550Z,7.00
2022-12-31T18:56:06.222Z,8.00
2022-12-31T18:58:13.648Z,8.13
2022-12-31T19:00:20.031Z,7.78
2022-12-31T19:02:25.304Z,7.25
2022-12-31T19:04:33.512Z,7.68
2022-12-31T19:06:38.691Z,7.93
2022-12-31T19:08:43.982Z,4.47
2022-12-31T19:10:51.081Z,5.50
2022-12-31T19:12:56.721Z,4.75
2022-12-31T19:15:01.963Z,5.60
2022-12-31T19:19:11.280Z,6.68
2022-12-31T19:21:23.784Z,6.65
2022-12-31T19:23:29.092Z,8.48
2022-12-31T19:25:37.874Z,8.82
2022-12-31T19:27:43.004Z,9.40
2022-12-31T19:29:48.181Z,13.05
2022-12-31T19:31:53.775Z,11.60
2022-12-31T19:33:59.046Z,12.63
2022-12-31T19:36:04.284Z,12.43
2022-12-31T19:38:20.797Z,9.77
2022-12-31T19:40:29.125Z,11.98
2022-12-31T19:42:34.477Z,9.85
2022-12-31T19:44:40.118Z,10.02
2022-12-31T19:46:45.402Z,9.73
2022-12-31T19:48:50.890Z,9.68
2022-12-31T19:50:57.385Z,15.93
2022-12-31T19:53:02.766Z,10.25
2022-12-31T19:55:14.911Z,10.38
2022-12-31T19:57:19.998Z,16.58
2022-12-31T19:59:25.212Z,49.25
2022-12-31T20:01:30.577Z,18.30
2022-12-31T20:03:36.173Z,33.80
2022-12-31T20:05:41.767Z,24.42
2022-12-31T20:07:46.903Z,16.42
2022-12-31T20:09:52.059Z,13.73
2022-12-31T20:11:59.808Z,15.50
2022-12-31T20:14:05.012Z,27.67
2022-12-31T20:16:11.993Z,52.53
2022-12-31T20:18:21.151Z,43.05
2022-12-31T20:20:29.140Z,50.65
2022-12-31T20:22:34.309Z,39.38
2022-12-31T20:24:39.603Z,32.28
2022-12-31T20:26:44.745Z,27.65
2022-12-31T20:28:53.150Z,15.40
2022-12-31T20:30:58.463Z,11.10
2022-12-31T20:33:03.663Z,12.82
2022-12-31T20:35:10.297Z,136.73
2022-12-31T20:37:15.527Z,103.65
2022-12-31T20:39:21.069Z,125.90
2022-12-31T20:41:27.384Z,36.28
2022-12-31T20:43:34.283Z,21.13
2022-12-31T20:45:45.405Z,23.30
2022-12-31T20:47:50.525Z,23.88
2022-12-31T20:50:12.486Z,22.33
2022-12-31T20:52:18.111Z,25.08
2022-12-31T20:54:23.440Z,25.33
2022-12-31T20:56:31.409Z,25.85
2022-12-31T20:58:36.947Z,26.90
2022-12-31T21:00:44.652Z,21.70
2022-12-31T21:03:00.300Z,23.50
2022-12-31T21:05:12.903Z,21.33
2022-12-31T21:07:18.235Z,23.13
2022-12-31T21:09:23.610Z,20.35
2022-12-31T21:11:42.045Z,20.88
2022-12-31T21:13:47.131Z,17.23
2022-12-31T21:15:56.765Z,14.70
2022-12-31T21:18:03.017Z,11.63
2022-12-31T21:20:11.044Z,13.52
2022-12-31T21:22:16.328Z,13.73
2022-12-31T21:24:24.086Z,12.57
2022-12-31T21:26:29.630Z,19.55
2022-12-31T21:28:35.418Z,20.33
2022-12-31T21:30:42.072Z,10.35
2022-12-31T21:32:50.194Z,11.27
2022-12-31T21:35:31.456Z,9.93
2022-12-31T21:37:20.621Z,7.72
2022-12-31T21:39:25.729Z,6.40
2022-12-31T21:41:43.430Z,6.53
2022-12-31T21:43:48.708Z,8.52
2022-12-31T21:46:04.349Z,8.75
2022-12-31T21:48:25.334Z,8.77
2022-12-31T21:50:30.563Z,7.65
2022-12-31T21:52:36.185Z,8.52
2022-12-31T21:54:53.817Z,11.20
2022-12-31T21:56:58.891Z,9.82
2022-12-31T21:59:16.554Z,9.55
2022-12-31T22:01:36.769Z,10.55
2022-12-31T22:03:44.936Z,10.57
2022-12-31T22:05:54.281Z,14.40
2022-12-31T22:07:59.479Z,15.52
2022-12-31T22:10:04.838Z,12.63
2022-12-31T22:12:10.613Z,14.50
2022-12-31T22:14:15.888Z,15.98
2022-12-31T22:16:22.265Z,11.65
2022-12-31T22:18:27.839Z,12.75
2022-12-31T22:20:35.568Z,14.73
2022-12-31T22:22:40.778Z,14.35
2022-12-31T22:24:46.079Z,15.23
2022-12-31T22:26:52.227Z,13.50
2022-12-31T22:28:59.592Z,11.70
2022-12-31T22:31:04.907Z,14.43
2022-12-31T22:33:10.384Z,11.35
2022-12-31T22:35:15.786Z,10.32
2022-12-31T22:37:55.081Z,15.93
2022-12-31T22:39:48.675Z,13.27
2022-12-31T22:41:53.828Z,10.88
2022-12-31T22:44:04.734Z,11.65
2022-12-31T22:46:15.487Z,12.80
2022-12-31T22:48:20.694Z,13.45
2022-12-31T22:50:25.932Z,15.80
2022-12-31T22:52:34.367Z,11.70
2022-12-31T22:54:39.502Z,10.85
2022-12-31T22:56:44.635Z,7.88
2022-12-31T22:58:50.421Z,12.40
2022-12-31T23:00:56.309Z,8.45
2022-12-31T23:03:01.407Z,10.63
2022-12-31T23:05:14.827Z,10.30
2022-12-31T23:07:21.181Z,89.95
2022-12-31T23:09:41.419Z,108.68
2022-12-31T23:11:46.575Z,115.05
2022-12-31T23:14:04.251Z,119.68
2022-12-31T23:16:23.118Z,126.68
2022-12-31T23:18:40.771Z,105.78
2022-12-31T23:20:58.411Z,95.25
2022-12-31T23:23:11.523Z,66.05
2022-12-31T23:25:19.795Z,86.50
2022-12-31T23:27:24.947Z,80.80
2022-12-31T23:29:30.196Z,76.22
2022-12-31T23:31:35.318Z,115.43
2022-12-31T23:33:40.626Z,111.93
2022-12-31T23:35:45.757Z,103.30
2022-12-31T23:37:50.929Z,157.57
2022-12-31T23:39:56.008Z,172.25
2022-12-31T23:42:04.103Z,174.25
2022-12-31T23:44:09.402Z,176.43
2022-12-31T23:46:15.199Z,145.75
2022-12-31T23:48:20.364Z,85.43
2022-12-31T23:50:26.006Z,94.45
2022-12-31T23:52:31.270Z,113.28
2022-12-31T23:54:36.785Z,109.68
2022-12-31T23:56:42.247Z,89.50
2022-12-31T23:58:50.488Z,73.40
